sensor_id;sensor_type;location;lat;lon;timestamp;temperature;humidity
76120;DHT22;64852;48.092;-1.640;2023-04-15T00:02:02;10.70;99.90
76120;DHT22;64852;48.092;-1.640;2023-04-15T00:04:28;10.70;99.90
76120;DHT22;64852;48.092;-1.640;2023-04-15T00:06:55;10.70;99.90
76120;DHT22;64852;48.092;-1.640;2023-04-15T00:09:21;10.70;99.90
76120;DHT22;64852;48.092;-1.640;2023-04-15T00:11:47;10.80;99.90
76120;DHT22;64852;48.092;-1.640;2023-04-15T00:14:12;10.70;99.90
76120;DHT22;64852;48.092;-1.640;2023-04-15T00:16:38;10.60;99.90
76120;DHT22;64852;48.092;-1.640;2023-04-15T00:19:03;10.40;99.90
76120;DHT22;64852;48.092;-1.640;2023-04-15T00:21:29;10.30;99.90
76120;DHT22;64852;48.092;-1.640;2023-04-15T00:23:54;10.20;99.90
76120;DHT22;64852;48.092;-1.640;2023-04-15T00:26:20;10.10;99.90
76120;DHT22;64852;48.092;-1.640;2023-04-15T00:28:46;10.20;99.90
76120;DHT22;64852;48.092;-1.640;2023-04-15T00:31:12;10.20;99.90
76120;DHT22;64852;48.092;-1.640;2023-04-15T00:33:37;10.30;99.90
76120;DHT22;64852;48.092;-1.640;2023-04-15T00:36:03;10.10;99.90
76120;DHT22;64852;48.092;-1.640;2023-04-15T00:38:30;10.10;99.90
76120;DHT22;64852;48.092;-1.640;2023-04-15T00:40:55;10.10;99.90
76120;DHT22;64852;48.092;-1.640;2023-04-15T00:43:21;10.00;99.90
76120;DHT22;64852;48.092;-1.640;2023-04-15T00:45:47;10.00;99.90
76120;DHT22;64852;48.092;-1.640;2023-04-15T00:48:12;10.10;99.90
76120;DHT22;64852;48.092;-1.640;2023-04-15T00:50:38;10.10;99.90
76120;DHT22;64852;48.092;-1.640;2023-04-15T00:53:03;10.20;99.90
76120;DHT22;64852;48.092;-1.640;2023-04-15T00:55:29;10.20;99.90
76120;DHT22;64852;48.092;-1.640;2023-04-15T00:57:55;10.10;99.90
76120;DHT22;64852;48.092;-1.640;2023-04-15T01:00:21;10.00;99.90
76120;DHT22;64852;48.092;-1.640;2023-04-15T01:02:47;10.00;99.90
76120;DHT22;64852;48.092;-1.640;2023-04-15T01:05:12;10.00;99.90
76120;DHT22;64852;48.092;-1.640;2023-04-15T01:07:38;9.90;99.90
76120;DHT22;64852;48.092;-1.640;2023-04-15T01:10:04;9.80;99.90
76120;DHT22;64852;48.092;-1.640;2023-04-15T01:12:31;9.70;99.90
76120;DHT22;64852;48.092;-1.640;2023-04-15T01:14:57;9.60;99.90
76120;DHT22;64852;48.092;-1.640;2023-04-15T01:17:23;9.60;99.90
76120;DHT22;64852;48.092;-1.640;2023-04-15T01:19:50;9.60;99.90
76120;DHT22;64852;48.092;-1.640;2023-04-15T01:22:16;9.60;99.90
76120;DHT22;64852;48.092;-1.640;2023-04-15T01:24:42;9.30;99.90
76120;DHT22;64852;48.092;-1.640;2023-04-15T01:27:10;9.40;99.90
76120;DHT22;64852;48.092;-1.640;2023-04-15T01:29:36;9.50;99.90
76120;DHT22;64852;48.092;-1.640;2023-04-15T01:32:02;9.20;99.90
76120;DHT22;64852;48.092;-1.640;2023-04-15T01:34:28;9.20;99.90
76120;DHT22;64852;48.092;-1.640;2023-04-15T01:36:53;9.30;99.90
76120;DHT22;64852;48.092;-1.640;2023-04-15T01:39:19;9.30;99.90
76120;DHT22;64852;48.092;-1.640;2023-04-15T01:41:45;9.30;99.90
76120;DHT22;64852;48.092;-1.640;2023-04-15T01:44:10;9.30;99.90
76120;DHT22;64852;48.092;-1.640;2023-04-15T01:46:36;9.30;99.90
76120;DHT22;64852;48.092;-1.640;2023-04-15T01:49:02;9.20;99.90
76120;DHT22;64852;48.092;-1.640;2023-04-15T01:51:27;9.30;99.90
76120;DHT22;64852;48.092;-1.640;2023-04-15T01:53:53;9.10;99.90
76120;DHT22;64852;48.092;-1.640;2023-04-15T01:56:21;9.30;99.90
76120;DHT22;64852;48.092;-1.640;2023-04-15T01:58:46;9.30;99.90
76120;DHT22;64852;48.092;-1.640;2023-04-15T02:01:12;9.20;99.90
76120;DHT22;64852;48.092;-1.640;2023-04-15T02:03:37;10.00;99.90
76120;DHT22;64852;48.092;-1.640;2023-04-15T02:06:03;9.10;99.90
76120;DHT22;64852;48.092;-1.640;2023-04-15T02:08:30;9.10;99.90
76120;DHT22;64852;48.092;-1.640;2023-04-15T02:10:55;9.70;99.90
76120;DHT22;64852;48.092;-1.640;2023-04-15T02:13:21;9.10;99.90
76120;DHT22;64852;48.092;-1.640;2023-04-15T02:15:47;9.40;99.90
76120;DHT22;64852;48.092;-1.640;2023-04-15T02:18:14;9.20;99.90
76120;DHT22;64852;48.092;-1.640;2023-04-15T02:20:39;9.10;99.90
76120;DHT22;64852;48.092;-1.640;2023-04-15T02:23:05;9.00;99.90
76120;DHT22;64852;48.092;-1.640;2023-04-15T02:25:31;8.90;99.90
76120;DHT22;64852;48.092;-1.640;2023-04-15T02:27:57;9.30;99.90
76120;DHT22;64852;48.092;-1.640;2023-04-15T02:30:22;9.60;99.90
76120;DHT22;64852;48.092;-1.640;2023-04-15T02:32:49;9.40;99.90
76120;DHT22;64852;48.092;-1.640;2023-04-15T02:35:15;9.00;99.90
76120;DHT22;64852;48.092;-1.640;2023-04-15T02:37:43;9.00;99.90
76120;DHT22;64852;48.092;-1.640;2023-04-15T02:40:10;9.00;99.90
76120;DHT22;64852;48.092;-1.640;2023-04-15T02:42:39;9.10;99.90
76120;DHT22;64852;48.092;-1.640;2023-04-15T02:45:05;8.90;99.90
76120;DHT22;64852;48.092;-1.640;2023-04-15T02:47:32;9.00;99.90
76120;DHT22;64852;48.092;-1.640;2023-04-15T02:49:58;9.30;99.90
76120;DHT22;64852;48.092;-1.640;2023-04-15T02:52:25;9.40;99.90
76120;DHT22;64852;48.092;-1.640;2023-04-15T02:54:50;9.10;99.90
76120;DHT22;64852;48.092;-1.640;2023-04-15T02:57:16;9.10;99.90
76120;DHT22;64852;48.092;-1.640;2023-04-15T02:59:41;9.30;99.90
76120;DHT22;64852;48.092;-1.640;2023-04-15T03:02:07;8.90;99.90
76120;DHT22;64852;48.092;-1.640;2023-04-15T03:04:32;9.00;99.90
76120;DHT22;64852;48.092;-1.640;2023-04-15T03:06:58;9.90;99.90
76120;DHT22;64852;48.092;-1.640;2023-04-15T03:09:25;8.90;99.90
76120;DHT22;64852;48.092;-1.640;2023-04-15T03:11:51;8.80;99.90
76120;DHT22;64852;48.092;-1.640;2023-04-15T03:14:19;9.10;99.90
76120;DHT22;64852;48.092;-1.640;2023-04-15T03:16:44;9.00;99.90
76120;DHT22;64852;48.092;-1.640;2023-04-15T03:19:10;9.60;99.90
76120;DHT22;64852;48.092;-1.640;2023-04-15T03:21:35;9.70;99.90
76120;DHT22;64852;48.092;-1.640;2023-04-15T03:24:03;8.90;99.90
76120;DHT22;64852;48.092;-1.640;2023-04-15T03:26:29;9.00;99.90
76120;DHT22;64852;48.092;-1.640;2023-04-15T03:28:56;8.90;99.90
76120;DHT22;64852;48.092;-1.640;2023-04-15T03:31:21;8.90;99.90
76120;DHT22;64852;48.092;-1.640;2023-04-15T03:33:47;9.00;99.90
76120;DHT22;64852;48.092;-1.640;2023-04-15T03:36:12;8.80;99.90
76120;DHT22;64852;48.092;-1.640;2023-04-15T03:38:38;9.00;99.90
76120;DHT22;64852;48.092;-1.640;2023-04-15T03:41:04;9.40;99.90
76120;DHT22;64852;48.092;-1.640;2023-04-15T03:43:29;8.80;99.90
76120;DHT22;64852;48.092;-1.640;2023-04-15T03:45:55;8.90;99.90
76120;DHT22;64852;48.092;-1.640;2023-04-15T03:48:21;8.70;99.90
76120;DHT22;64852;48.092;-1.640;2023-04-15T03:50:46;8.80;99.90
76120;DHT22;64852;48.092;-1.640;2023-04-15T03:53:12;8.90;99.90
76120;DHT22;64852;48.092;-1.640;2023-04-15T03:55:38;8.90;99.90
76120;DHT22;64852;48.092;-1.640;2023-04-15T03:58:04;9.00;99.90
76120;DHT22;64852;48.092;-1.640;2023-04-15T04:00:29;9.40;99.90
76120;DHT22;64852;48.092;-1.640;2023-04-15T04:02:55;8.80;99.90
76120;DHT22;64852;48.092;-1.640;2023-04-15T04:05:21;9.00;99.90
76120;DHT22;64852;48.092;-1.640;2023-04-15T04:07:46;8.90;99.90
76120;DHT22;64852;48.092;-1.640;2023-04-15T04:10:12;8.90;99.90
76120;DHT22;64852;48.092;-1.640;2023-04-15T04:12:37;9.70;99.90
76120;DHT22;64852;48.092;-1.640;2023-04-15T04:15:03;9.70;99.90
76120;DHT22;64852;48.092;-1.640;2023-04-15T04:17:28;8.70;99.90
76120;DHT22;64852;48.092;-1.640;2023-04-15T04:19:54;8.70;99.90
76120;DHT22;64852;48.092;-1.640;2023-04-15T04:22:22;8.80;99.90
76120;DHT22;64852;48.092;-1.640;2023-04-15T04:24:48;8.70;99.90
76120;DHT22;64852;48.092;-1.640;2023-04-15T04:27:14;9.50;99.90
76120;DHT22;64852;48.092;-1.640;2023-04-15T04:29:39;8.60;99.90
76120;DHT22;64852;48.092;-1.640;2023-04-15T04:32:05;9.50;99.90
76120;DHT22;64852;48.092;-1.640;2023-04-15T04:34:31;8.60;99.90
76120;DHT22;64852;48.092;-1.640;2023-04-15T04:36:56;8.60;99.90
76120;DHT22;64852;48.092;-1.640;2023-04-15T04:39:22;8.80;99.90
76120;DHT22;64852;48.092;-1.640;2023-04-15T04:41:48;8.50;99.90
76120;DHT22;64852;48.092;-1.640;2023-04-15T04:44:13;9.00;99.90
76120;DHT22;64852;48.092;-1.640;2023-04-15T04:46:39;8.80;99.90
76120;DHT22;64852;48.092;-1.640;2023-04-15T04:49:05;8.40;99.90
76120;DHT22;64852;48.092;-1.640;2023-04-15T04:51:30;8.50;99.90
76120;DHT22;64852;48.092;-1.640;2023-04-15T04:53:56;9.30;99.90
76120;DHT22;64852;48.092;-1.640;2023-04-15T04:56:22;8.80;99.90
76120;DHT22;64852;48.092;-1.640;2023-04-15T04:58:47;8.30;99.90
76120;DHT22;64852;48.092;-1.640;2023-04-15T05:01:13;8.50;99.90
76120;DHT22;64852;48.092;-1.640;2023-04-15T05:03:38;9.30;99.90
76120;DHT22;64852;48.092;-1.640;2023-04-15T05:06:04;9.20;99.90
76120;DHT22;64852;48.092;-1.640;2023-04-15T05:08:31;8.30;99.90
76120;DHT22;64852;48.092;-1.640;2023-04-15T05:10:57;8.70;99.90
76120;DHT22;64852;48.092;-1.640;2023-04-15T05:13:22;9.00;99.90
76120;DHT22;64852;48.092;-1.640;2023-04-15T05:15:48;8.30;99.90
76120;DHT22;64852;48.092;-1.640;2023-04-15T05:18:13;8.40;99.90
76120;DHT22;64852;48.092;-1.640;2023-04-15T05:20:39;9.00;99.90
76120;DHT22;64852;48.092;-1.640;2023-04-15T05:23:04;8.40;99.90
76120;DHT22;64852;48.092;-1.640;2023-04-15T05:25:30;9.10;99.90
76120;DHT22;64852;48.092;-1.640;2023-04-15T05:27:55;8.50;99.90
76120;DHT22;64852;48.092;-1.640;2023-04-15T05:30:21;9.30;99.90
76120;DHT22;64852;48.092;-1.640;2023-04-15T05:32:46;8.80;99.90
76120;DHT22;64852;48.092;-1.640;2023-04-15T05:35:12;8.90;99.90
76120;DHT22;64852;48.092;-1.640;2023-04-15T05:37:37;8.40;99.90
76120;DHT22;64852;48.092;-1.640;2023-04-15T05:40:03;8.60;99.90
76120;DHT22;64852;48.092;-1.640;2023-04-15T05:42:28;8.50;99.90
76120;DHT22;64852;48.092;-1.640;2023-04-15T05:44:54;8.60;99.90
76120;DHT22;64852;48.092;-1.640;2023-04-15T05:47:20;9.20;99.90
76120;DHT22;64852;48.092;-1.640;2023-04-15T05:49:45;8.80;99.90
76120;DHT22;64852;48.092;-1.640;2023-04-15T05:52:11;8.60;99.90
76120;DHT22;64852;48.092;-1.640;2023-04-15T05:54:36;8.70;99.90
76120;DHT22;64852;48.092;-1.640;2023-04-15T05:57:02;9.60;99.90
76120;DHT22;64852;48.092;-1.640;2023-04-15T05:59:28;8.80;99.90
76120;DHT22;64852;48.092;-1.640;2023-04-15T06:01:53;8.70;99.90
76120;DHT22;64852;48.092;-1.640;2023-04-15T06:04:19;8.80;99.90
76120;DHT22;64852;48.092;-1.640;2023-04-15T06:06:44;8.80;99.90
76120;DHT22;64852;48.092;-1.640;2023-04-15T06:09:10;8.90;99.90
76120;DHT22;64852;48.092;-1.640;2023-04-15T06:11:36;9.00;99.90
76120;DHT22;64852;48.092;-1.640;2023-04-15T06:14:01;8.90;99.90
76120;DHT22;64852;48.092;-1.640;2023-04-15T06:16:27;9.30;99.90
76120;DHT22;64852;48.092;-1.640;2023-04-15T06:18:52;9.00;99.90
76120;DHT22;64852;48.092;-1.640;2023-04-15T06:21:18;9.40;99.90
76120;DHT22;64852;48.092;-1.640;2023-04-15T06:23:43;9.50;99.90
76120;DHT22;64852;48.092;-1.640;2023-04-15T06:26:09;9.20;99.90
76120;DHT22;64852;48.092;-1.640;2023-04-15T06:28:35;9.30;99.90
76120;DHT22;64852;48.092;-1.640;2023-04-15T06:31:00;9.30;99.90
76120;DHT22;64852;48.092;-1.640;2023-04-15T06:33:26;9.30;99.90
76120;DHT22;64852;48.092;-1.640;2023-04-15T06:35:51;9.40;99.90
76120;DHT22;64852;48.092;-1.640;2023-04-15T06:38:17;9.40;99.90
76120;DHT22;64852;48.092;-1.640;2023-04-15T06:40:43;9.50;99.90
76120;DHT22;64852;48.092;-1.640;2023-04-15T06:43:08;9.50;99.90
76120;DHT22;64852;48.092;-1.640;2023-04-15T06:45:34;9.60;99.90
76120;DHT22;64852;48.092;-1.640;2023-04-15T06:47:59;9.70;99.90
76120;DHT22;64852;48.092;-1.640;2023-04-15T06:50:25;9.50;99.90
76120;DHT22;64852;48.092;-1.640;2023-04-15T06:52:52;9.70;99.90
76120;DHT22;64852;48.092;-1.640;2023-04-15T06:55:18;9.70;99.90
76120;DHT22;64852;48.092;-1.640;2023-04-15T06:57:43;9.80;99.90
76120;DHT22;64852;48.092;-1.640;2023-04-15T07:00:09;9.80;99.90
76120;DHT22;64852;48.092;-1.640;2023-04-15T07:02:36;9.80;99.90
76120;DHT22;64852;48.092;-1.640;2023-04-15T07:05:02;9.90;99.90
76120;DHT22;64852;48.092;-1.640;2023-04-15T07:07:27;10.10;99.90
76120;DHT22;64852;48.092;-1.640;2023-04-15T07:09:53;9.90;99.90
76120;DHT22;64852;48.092;-1.640;2023-04-15T07:12:18;9.90;99.90
76120;DHT22;64852;48.092;-1.640;2023-04-15T07:14:44;10.00;99.90
76120;DHT22;64852;48.092;-1.640;2023-04-15T07:17:09;10.00;99.90
76120;DHT22;64852;48.092;-1.640;2023-04-15T07:19:36;10.10;99.90
76120;DHT22;64852;48.092;-1.640;2023-04-15T07:22:02;10.20;99.90
76120;DHT22;64852;48.092;-1.640;2023-04-15T07:24:28;10.30;99.90
76120;DHT22;64852;48.092;-1.640;2023-04-15T07:26:53;10.10;99.90
76120;DHT22;64852;48.092;-1.640;2023-04-15T07:29:22;10.10;99.90
76120;DHT22;64852;48.092;-1.640;2023-04-15T07:31:47;10.30;99.90
76120;DHT22;64852;48.092;-1.640;2023-04-15T07:34:13;10.30;99.90
76120;DHT22;64852;48.092;-1.640;2023-04-15T07:36:38;10.30;99.90
76120;DHT22;64852;48.092;-1.640;2023-04-15T07:39:04;10.40;99.90
76120;DHT22;64852;48.092;-1.640;2023-04-15T07:41:30;10.40;99.90
76120;DHT22;64852;48.092;-1.640;2023-04-15T07:43:56;10.40;99.90
76120;DHT22;64852;48.092;-1.640;2023-04-15T07:46:21;10.50;99.90
76120;DHT22;64852;48.092;-1.640;2023-04-15T07:48:49;10.50;99.90
76120;DHT22;64852;48.092;-1.640;2023-04-15T07:51:15;10.50;99.90
76120;DHT22;64852;48.092;-1.640;2023-04-15T07:53:42;10.60;99.90
76120;DHT22;64852;48.092;-1.640;2023-04-15T07:56:07;10.60;99.90
76120;DHT22;64852;48.092;-1.640;2023-04-15T07:58:33;10.60;99.90
76120;DHT22;64852;48.092;-1.640;2023-04-15T08:00:58;10.70;99.90
76120;DHT22;64852;48.092;-1.640;2023-04-15T08:03:24;10.70;99.90
76120;DHT22;64852;48.092;-1.640;2023-04-15T08:05:49;10.70;99.90
76120;DHT22;64852;48.092;-1.640;2023-04-15T08:08:15;10.70;99.90
76120;DHT22;64852;48.092;-1.640;2023-04-15T08:10:41;10.70;99.90
76120;DHT22;64852;48.092;-1.640;2023-04-15T08:13:06;10.90;99.90
76120;DHT22;64852;48.092;-1.640;2023-04-15T08:15:32;11.00;99.90
76120;DHT22;64852;48.092;-1.640;2023-04-15T08:17:57;11.20;99.90
76120;DHT22;64852;48.092;-1.640;2023-04-15T08:20:25;11.10;99.90
76120;DHT22;64852;48.092;-1.640;2023-04-15T08:22:50;11.10;99.90
76120;DHT22;64852;48.092;-1.640;2023-04-15T08:25:17;11.10;99.90
76120;DHT22;64852;48.092;-1.640;2023-04-15T08:27:43;11.20;99.90
76120;DHT22;64852;48.092;-1.640;2023-04-15T08:30:08;11.30;99.90
76120;DHT22;64852;48.092;-1.640;2023-04-15T08:32:34;11.20;99.90
76120;DHT22;64852;48.092;-1.640;2023-04-15T08:35:00;11.30;99.90
76120;DHT22;64852;48.092;-1.640;2023-04-15T08:37:26;11.30;99.90
76120;DHT22;64852;48.092;-1.640;2023-04-15T08:39:51;11.50;99.90
76120;DHT22;64852;48.092;-1.640;2023-04-15T08:42:18;11.40;99.90
76120;DHT22;64852;48.092;-1.640;2023-04-15T08:44:47;11.50;99.90
76120;DHT22;64852;48.092;-1.640;2023-04-15T08:47:13;11.30;99.90
76120;DHT22;64852;48.092;-1.640;2023-04-15T08:49:39;11.40;99.90
76120;DHT22;64852;48.092;-1.640;2023-04-15T08:52:06;11.50;99.90
76120;DHT22;64852;48.092;-1.640;2023-04-15T08:54:31;11.60;99.90
76120;DHT22;64852;48.092;-1.640;2023-04-15T08:56:57;11.70;99.90
76120;DHT22;64852;48.092;-1.640;2023-04-15T08:59:23;11.80;99.90
76120;DHT22;64852;48.092;-1.640;2023-04-15T09:01:49;11.80;99.90
76120;DHT22;64852;48.092;-1.640;2023-04-15T09:04:17;11.90;99.90
76120;DHT22;64852;48.092;-1.640;2023-04-15T09:06:43;11.70;99.90
76120;DHT22;64852;48.092;-1.640;2023-04-15T09:09:09;11.90;99.90
76120;DHT22;64852;48.092;-1.640;2023-04-15T09:11:34;12.00;99.90
76120;DHT22;64852;48.092;-1.640;2023-04-15T09:14:00;12.10;99.90
76120;DHT22;64852;48.092;-1.640;2023-04-15T09:16:26;12.30;99.90
76120;DHT22;64852;48.092;-1.640;2023-04-15T09:18:52;12.40;99.90
76120;DHT22;64852;48.092;-1.640;2023-04-15T09:21:17;12.40;99.90
76120;DHT22;64852;48.092;-1.640;2023-04-15T09:23:53;12.40;99.90
76120;DHT22;64852;48.092;-1.640;2023-04-15T09:26:19;12.20;99.90
76120;DHT22;64852;48.092;-1.640;2023-04-15T09:28:44;12.20;99.90
76120;DHT22;64852;48.092;-1.640;2023-04-15T09:31:10;12.20;99.90
76120;DHT22;64852;48.092;-1.640;2023-04-15T09:33:40;12.30;99.90
76120;DHT22;64852;48.092;-1.640;2023-04-15T09:36:18;12.40;99.90
76120;DHT22;64852;48.092;-1.640;2023-04-15T09:38:56;12.50;99.90
76120;DHT22;64852;48.092;-1.640;2023-04-15T09:41:22;12.80;99.90
76120;DHT22;64852;48.092;-1.640;2023-04-15T09:43:48;12.90;99.90
76120;DHT22;64852;48.092;-1.640;2023-04-15T09:46:14;13.20;99.90
76120;DHT22;64852;48.092;-1.640;2023-04-15T09:48:39;13.50;99.90
76120;DHT22;64852;48.092;-1.640;2023-04-15T09:51:05;13.60;99.90
76120;DHT22;64852;48.092;-1.640;2023-04-15T09:53:32;13.90;99.90
76120;DHT22;64852;48.092;-1.640;2023-04-15T09:55:58;13.80;99.90
76120;DHT22;64852;48.092;-1.640;2023-04-15T09:58:28;13.90;99.90
76120;DHT22;64852;48.092;-1.640;2023-04-15T10:00:54;13.80;99.90
76120;DHT22;64852;48.092;-1.640;2023-04-15T10:03:22;13.80;99.90
76120;DHT22;64852;48.092;-1.640;2023-04-15T10:05:48;13.70;99.90
76120;DHT22;64852;48.092;-1.640;2023-04-15T10:08:18;13.50;99.90
76120;DHT22;64852;48.092;-1.640;2023-04-15T10:10:45;13.40;99.90
76120;DHT22;64852;48.092;-1.640;2023-04-15T10:13:12;13.50;99.90
76120;DHT22;64852;48.092;-1.640;2023-04-15T10:15:38;13.60;99.90
76120;DHT22;64852;48.092;-1.640;2023-04-15T10:18:04;13.80;99.90
76120;DHT22;64852;48.092;-1.640;2023-04-15T10:20:29;13.80;99.90
76120;DHT22;64852;48.092;-1.640;2023-04-15T10:22:55;13.80;99.90
76120;DHT22;64852;48.092;-1.640;2023-04-15T10:25:21;13.90;99.90
76120;DHT22;64852;48.092;-1.640;2023-04-15T10:27:47;14.00;99.90
76120;DHT22;64852;48.092;-1.640;2023-04-15T10:30:13;14.20;99.90
76120;DHT22;64852;48.092;-1.640;2023-04-15T10:32:39;14.30;99.90
76120;DHT22;64852;48.092;-1.640;2023-04-15T10:35:05;14.40;99.90
76120;DHT22;64852;48.092;-1.640;2023-04-15T10:37:32;14.40;98.40
76120;DHT22;64852;48.092;-1.640;2023-04-15T10:39:58;14.50;95.00
76120;DHT22;64852;48.092;-1.640;2023-04-15T10:42:24;14.60;99.90
76120;DHT22;64852;48.092;-1.640;2023-04-15T10:44:58;14.70;99.90
76120;DHT22;64852;48.092;-1.640;2023-04-15T10:47:24;14.70;97.70
76120;DHT22;64852;48.092;-1.640;2023-04-15T10:49:50;14.60;83.00
76120;DHT22;64852;48.092;-1.640;2023-04-15T10:52:17;14.50;86.90
76120;DHT22;64852;48.092;-1.640;2023-04-15T10:54:43;14.20;83.20
76120;DHT22;64852;48.092;-1.640;2023-04-15T10:57:13;14.40;91.70
76120;DHT22;64852;48.092;-1.640;2023-04-15T11:02:42;14.80;91.60
76120;DHT22;64852;48.092;-1.640;2023-04-15T11:05:08;14.90;90.70
76120;DHT22;64852;48.092;-1.640;2023-04-15T11:10:00;15.10;77.80
76120;DHT22;64852;48.092;-1.640;2023-04-15T11:12:32;15.30;81.80
76120;DHT22;64852;48.092;-1.640;2023-04-15T11:14:59;15.40;95.40
76120;DHT22;64852;48.092;-1.640;2023-04-15T11:17:27;15.70;91.60
76120;DHT22;64852;48.092;-1.640;2023-04-15T11:19:53;16.00;87.20
76120;DHT22;64852;48.092;-1.640;2023-04-15T11:22:19;16.00;91.20
76120;DHT22;64852;48.092;-1.640;2023-04-15T11:24:47;16.00;77.60
76120;DHT22;64852;48.092;-1.640;2023-04-15T11:27:20;15.90;73.80
76120;DHT22;64852;48.092;-1.640;2023-04-15T11:29:45;15.70;69.20
76120;DHT22;64852;48.092;-1.640;2023-04-15T11:32:11;15.70;80.20
76120;DHT22;64852;48.092;-1.640;2023-04-15T11:34:36;15.50;76.80
76120;DHT22;64852;48.092;-1.640;2023-04-15T11:37:03;15.50;80.30
76120;DHT22;64852;48.092;-1.640;2023-04-15T11:39:28;15.40;76.30
76120;DHT22;64852;48.092;-1.640;2023-04-15T11:41:54;15.40;72.20
76120;DHT22;64852;48.092;-1.640;2023-04-15T11:44:19;15.50;73.50
76120;DHT22;64852;48.092;-1.640;2023-04-15T11:46:45;15.80;71.20
76120;DHT22;64852;48.092;-1.640;2023-04-15T11:49:10;15.80;73.10
76120;DHT22;64852;48.092;-1.640;2023-04-15T11:51:36;15.80;68.40
76120;DHT22;64852;48.092;-1.640;2023-04-15T11:54:01;15.80;67.60
76120;DHT22;64852;48.092;-1.640;2023-04-15T11:56:27;15.80;66.40
76120;DHT22;64852;48.092;-1.640;2023-04-15T11:58:54;16.10;73.30
76120;DHT22;64852;48.092;-1.640;2023-04-15T12:01:29;16.30;65.10
76120;DHT22;64852;48.092;-1.640;2023-04-15T12:03:55;16.60;73.90
76120;DHT22;64852;48.092;-1.640;2023-04-15T12:06:21;16.80;68.40
76120;DHT22;64852;48.092;-1.640;2023-04-15T12:08:48;16.60;63.60
76120;DHT22;64852;48.092;-1.640;2023-04-15T12:11:14;16.60;68.00
76120;DHT22;64852;48.092;-1.640;2023-04-15T12:13:43;16.80;73.40
76120;DHT22;64852;48.092;-1.640;2023-04-15T12:16:09;17.30;68.00
76120;DHT22;64852;48.092;-1.640;2023-04-15T12:18:36;17.80;65.90
76120;DHT22;64852;48.092;-1.640;2023-04-15T12:21:11;18.00;67.50
76120;DHT22;64852;48.092;-1.640;2023-04-15T12:23:53;17.90;58.50
76120;DHT22;64852;48.092;-1.640;2023-04-15T12:26:25;17.70;59.90
76120;DHT22;64852;48.092;-1.640;2023-04-15T12:28:55;17.50;57.90
76120;DHT22;64852;48.092;-1.640;2023-04-15T12:31:21;17.20;55.50
76120;DHT22;64852;48.092;-1.640;2023-04-15T12:33:47;19.40;63.10
76120;DHT22;64852;48.092;-1.640;2023-04-15T12:36:14;18.20;58.50
76120;DHT22;64852;48.092;-1.640;2023-04-15T12:38:39;18.60;58.50
76120;DHT22;64852;48.092;-1.640;2023-04-15T12:41:05;18.60;57.00
76120;DHT22;64852;48.092;-1.640;2023-04-15T12:43:31;18.80;60.20
76120;DHT22;64852;48.092;-1.640;2023-04-15T12:45:56;19.00;55.10
76120;DHT22;64852;48.092;-1.640;2023-04-15T12:48:22;18.70;57.10
76120;DHT22;64852;48.092;-1.640;2023-04-15T12:50:47;18.50;55.40
76120;DHT22;64852;48.092;-1.640;2023-04-15T12:53:13;18.00;50.40
76120;DHT22;64852;48.092;-1.640;2023-04-15T12:55:38;17.60;55.00
76120;DHT22;64852;48.092;-1.640;2023-04-15T12:58:04;18.50;55.00
76120;DHT22;64852;48.092;-1.640;2023-04-15T13:00:29;19.80;61.30
76120;DHT22;64852;48.092;-1.640;2023-04-15T13:02:57;20.70;60.40
76120;DHT22;64852;48.092;-1.640;2023-04-15T13:05:23;21.30;61.80
76120;DHT22;64852;48.092;-1.640;2023-04-15T13:07:48;22.50;63.60
76120;DHT22;64852;48.092;-1.640;2023-04-15T13:10:14;23.10;50.70
76120;DHT22;64852;48.092;-1.640;2023-04-15T13:12:40;23.10;46.20
76120;DHT22;64852;48.092;-1.640;2023-04-15T13:15:06;23.20;46.70
76120;DHT22;64852;48.092;-1.640;2023-04-15T13:17:31;23.10;45.60
76120;DHT22;64852;48.092;-1.640;2023-04-15T13:19:57;23.00;46.60
76120;DHT22;64852;48.092;-1.640;2023-04-15T13:22:22;23.30;45.50
76120;DHT22;64852;48.092;-1.640;2023-04-15T13:24:48;23.80;43.60
76120;DHT22;64852;48.092;-1.640;2023-04-15T13:27:13;23.90;43.70
76120;DHT22;64852;48.092;-1.640;2023-04-15T13:29:39;24.20;44.70
76120;DHT22;64852;48.092;-1.640;2023-04-15T13:32:05;24.40;43.30
76120;DHT22;64852;48.092;-1.640;2023-04-15T13:34:31;24.10;41.80
76120;DHT22;64852;48.092;-1.640;2023-04-15T13:36:56;23.50;40.60
76120;DHT22;64852;48.092;-1.640;2023-04-15T13:39:22;23.50;39.30
76120;DHT22;64852;48.092;-1.640;2023-04-15T13:41:47;23.50;41.70
76120;DHT22;64852;48.092;-1.640;2023-04-15T13:44:13;23.90;40.90
76120;DHT22;64852;48.092;-1.640;2023-04-15T13:46:39;24.30;42.70
76120;DHT22;64852;48.092;-1.640;2023-04-15T13:49:06;24.50;44.20
76120;DHT22;64852;48.092;-1.640;2023-04-15T13:51:31;24.70;40.40
76120;DHT22;64852;48.092;-1.640;2023-04-15T13:53:57;25.00;42.90
76120;DHT22;64852;48.092;-1.640;2023-04-15T13:56:22;25.30;39.60
76120;DHT22;64852;48.092;-1.640;2023-04-15T13:58:48;25.10;38.90
76120;DHT22;64852;48.092;-1.640;2023-04-15T14:01:14;24.20;37.30
76120;DHT22;64852;48.092;-1.640;2023-04-15T14:03:39;23.60;36.90
76120;DHT22;64852;48.092;-1.640;2023-04-15T14:06:05;24.00;39.90
76120;DHT22;64852;48.092;-1.640;2023-04-15T14:08:31;24.10;38.20
76120;DHT22;64852;48.092;-1.640;2023-04-15T14:10:57;24.30;36.40
76120;DHT22;64852;48.092;-1.640;2023-04-15T14:13:22;24.80;36.00
76120;DHT22;64852;48.092;-1.640;2023-04-15T14:15:47;25.10;38.00
76120;DHT22;64852;48.092;-1.640;2023-04-15T14:18:13;25.40;36.30
76120;DHT22;64852;48.092;-1.640;2023-04-15T14:20:38;25.50;38.60
76120;DHT22;64852;48.092;-1.640;2023-04-15T14:23:04;25.90;34.10
76120;DHT22;64852;48.092;-1.640;2023-04-15T14:25:30;26.40;37.10
76120;DHT22;64852;48.092;-1.640;2023-04-15T14:27:55;26.50;34.10
76120;DHT22;64852;48.092;-1.640;2023-04-15T14:30:21;26.50;34.80
76120;DHT22;64852;48.092;-1.640;2023-04-15T14:32:46;25.40;30.90
76120;DHT22;64852;48.092;-1.640;2023-04-15T14:35:12;25.10;33.30
76120;DHT22;64852;48.092;-1.640;2023-04-15T14:37:37;25.00;33.00
76120;DHT22;64852;48.092;-1.640;2023-04-15T14:40:03;25.70;34.40
76120;DHT22;64852;48.092;-1.640;2023-04-15T14:42:28;26.10;33.70
76120;DHT22;64852;48.092;-1.640;2023-04-15T14:44:54;26.80;33.90
76120;DHT22;64852;48.092;-1.640;2023-04-15T14:47:19;26.90;32.60
76120;DHT22;64852;48.092;-1.640;2023-04-15T14:49:45;26.90;32.10
76120;DHT22;64852;48.092;-1.640;2023-04-15T14:52:10;26.40;30.00
76120;DHT22;64852;48.092;-1.640;2023-04-15T14:54:36;25.70;31.20
76120;DHT22;64852;48.092;-1.640;2023-04-15T14:57:02;26.10;30.70
76120;DHT22;64852;48.092;-1.640;2023-04-15T14:59:27;26.50;33.70
76120;DHT22;64852;48.092;-1.640;2023-04-15T15:01:53;27.40;33.60
76120;DHT22;64852;48.092;-1.640;2023-04-15T15:04:18;27.70;32.00
76120;DHT22;64852;48.092;-1.640;2023-04-15T15:06:44;28.00;30.60
76120;DHT22;64852;48.092;-1.640;2023-04-15T15:09:09;28.40;30.40
76120;DHT22;64852;48.092;-1.640;2023-04-15T15:11:35;28.70;31.30
76120;DHT22;64852;48.092;-1.640;2023-04-15T15:14:00;29.20;30.00
76120;DHT22;64852;48.092;-1.640;2023-04-15T15:16:26;28.20;28.00
76120;DHT22;64852;48.092;-1.640;2023-04-15T15:18:52;28.30;30.00
76120;DHT22;64852;48.092;-1.640;2023-04-15T15:21:17;29.10;30.60